Winslow, IL (61089)

11:18 PM CDT on October 21, 2019 (GMT -0500)
Winslow | | Change Station
Active Advisory: Wind Advisory

Elev 804 ft 42.50 °N, 89.80 °W | Updated 4 seconds ago

Overcast
Overcast
51 °F
Feels Like 51 °F
N
9
Wind Variable Wind from SSW
Gusts 20.0 mph

Today
High -- | Low -- °F
--% Chance of Precip.
Yesterday
High -- | Low -- °F
Precip. -- in
Pressure 29.40 in
Visibility 10.0 miles
Clouds Mostly Cloudy 2800 ft
Mostly Cloudy 4400 ft
Mostly Cloudy 4900 ft
Dew Point 44 °F
Humidity 76%
Rainfall 0.22 in
Snow Depth Not available.
7:18 AM 6:07 PM
Last Quarter, 43% visible
METAR KEFT 220415Z AUTO 21022G29KT 10SM BKN028 BKN044 BKN049 10/04 A2940 RMK AO2 T01000044
Pressure 29.40 in
Visibility 10.0 miles
Clouds Mostly Cloudy 2800 ft
Mostly Cloudy 4400 ft
Mostly Cloudy 4900 ft
Dew Point 44 °F
Humidity 76%
Rainfall 0.22 in
Snow Depth Not available.
7:18 AM 6:07 PM
Last Quarter, 43% visible
METAR KEFT 220415Z AUTO 21022G29KT 10SM BKN028 BKN044 BKN049 10/04 A2940 RMK AO2 T01000044

Get Your Daily Forecast Email!

Thanks for signing up!

Be on the lookout for a verification email in your inbox.

You'll start receiving severe weather alerts in your inbox..

×

10-Day Weather Forecast

Almanac

Astronomy

Oct. 21, 2019 Rise Set
Actual Time
Civil Twilight
Nautical Twilight
Astronomical Twilight
Moon
Length of Visible Light
Length of Day
Tomorrow will be .
, % of the Moon is Illuminated

Today's Extremes

State Highs State Lows

Community

WunderPhotos

Category 6

Welcome to Category 6. This is the collective home for Weather Underground's featured writeups by Dr. Jeff Masters (right), Bob Henson (left), Chris Burt, and other regular contributors.

Nearby

Air Quality

  Air Quality AQ Index Pollutant
Not available.

Snow Depth

Station Depth Elevation

Earthquake Activity

City Distance Mag. Time & Date
Minimum magnitude displayed is 2.5.

Coastal Water Temperatures

Place Temperature

Stations

Nearby Weather Stations

Station Location Temp. Windchill Dew Point Humidity Wind Precip. Elev Updated Type
                   

Watches & Warnings

Wind Advisory
Issued: 8:23 PM CDT Oct. 21, 2019 – National Weather Service

... Wind Advisory in effect until 3 PM CDT Tuesday...

* what... west winds 20 to 30 mph with frequent gusts to 45 mph
expected.

* Where... Jo Daviess, Stephenson, Carroll, Whiteside, Henry IL,
Bureau and Putnam counties.

* When... now... until 3 PM CDT Tuesday.

* Impacts... gusty winds could blow around unsecured objects and
create travel difficulties for high profile vehicles on north
south roads. Tree limbs could be blown down and a few power
outages may result.


Precautionary/preparedness actions...

Use extra caution when driving, especially if operating a high
profile vehicle. Secure outdoor objects.